Time;durP1;ratioP1;P1;durP2;ratioP2;P2;SDS_P1;SDS_P2;PMS_P1;PMS_P2;Temp;Humidity;BMP_temperature;BMP_pressure;BME280_temperature;BME280_humidity;BME280_pressure;Samples;Min_cycle;Max_cycle;Signal;HPM_P1;HPM_P2
2023/02/21 02:43:29;;;;;;;29.17;14.02;;;;;;;8.77;100.00;100638.59;5219825;28;20040;-72
2023/02/21 04:19:40;;;;;;;29.33;12.57;;;;;;;8.81;100.00;100585.47;5227977;28;20076;-73
2023/02/21 05:24:16;;;;;;;30.77;14.52;;;;;;;8.98;100.00;100596.28;5183710;28;20317;-72
2023/02/21 05:26:47;;;;;;;33.97;14.15;;;;;;;9.10;100.00;100588.09;5193064;28;20029;-75
2023/02/21 05:29:18;;;;;;;34.13;14.30;;;;;;;9.10;100.00;100587.25;5198111;28;20045;-73
2023/02/21 05:31:48;;;;;;;29.83;14.05;;;;;;;9.04;100.00;100590.88;5207302;28;20036;-72
2023/02/21 05:34:19;;;;;;;34.70;15.95;;;;;;;9.04;100.00;100596.09;5200624;28;20025;-72
2023/02/21 05:36:49;;;;;;;41.03;17.05;;;;;;;9.12;100.00;100593.25;5230401;28;20025;-72
2023/02/21 05:39:19;;;;;;;34.17;16.33;;;;;;;9.03;100.00;100599.59;5209662;28;20052;-73
2023/02/21 05:41:50;;;;;;;37.95;16.00;;;;;;;9.02;100.00;100591.81;5188643;28;20372;-73
2023/02/21 05:44:20;;;;;;;34.83;14.63;;;;;;;9.08;100.00;100597.69;5022657;28;20473;-71
2023/02/21 05:46:51;;;;;;;33.60;15.77;;;;;;;9.12;100.00;100599.34;4997642;29;20102;-72
2023/02/21 05:49:21;;;;;;;32.65;15.05;;;;;;;9.17;100.00;100592.25;4960775;29;20064;-72
2023/02/21 05:51:51;;;;;;;33.40;14.73;;;;;;;9.18;100.00;100591.34;4865085;30;20088;-75
2023/02/21 05:57:04;;;;;;;29.48;13.20;;;;;;;9.22;100.00;100603.38;5313009;27;20133;-76
2023/02/21 05:59:36;;;;;;;31.50;14.27;;;;;;;9.19;100.00;100606.06;5279505;28;20127;-73
2023/02/21 06:02:06;;;;;;;33.40;14.45;;;;;;;9.18;100.00;100599.16;5275611;28;20077;-76
2023/02/21 06:04:36;;;;;;;35.05;15.00;;;;;;;9.11;100.00;100613.28;5236466;28;20052;-76
2023/02/21 06:07:07;;;;;;;33.27;14.53;;;;;;;9.17;100.00;100613.09;5110189;28;1253927;-76
2023/02/21 06:09:37;;;;;;;29.20;13.57;;;;;;;9.19;100.00;100613.91;5141887;28;20290;-77
2023/02/21 06:12:07;;;;;;;29.73;14.40;;;;;;;9.17;100.00;100608.72;5158783;28;20411;-76
2023/02/21 06:14:38;;;;;;;25.98;13.00;;;;;;;9.19;100.00;100616.50;5140431;28;20026;-76
2023/02/21 06:17:08;;;;;;;30.45;13.52;;;;;;;9.22;100.00;100611.19;5158301;28;20494;-76
2023/02/21 06:19:38;;;;;;;28.13;13.48;;;;;;;9.15;100.00;100614.91;5158723;28;20072;-76
2023/02/21 06:22:08;;;;;;;29.13;14.23;;;;;;;9.28;100.00;100621.47;5159303;28;20030;-77
2023/02/21 06:24:39;;;;;;;27.02;12.80;;;;;;;9.21;100.00;100617.31;5172788;28;20037;-76
2023/02/21 06:27:09;;;;;;;24.88;12.27;;;;;;;9.23;100.00;100628.53;5157955;28;20030;-75
2023/02/21 06:29:39;;;;;;;26.27;12.30;;;;;;;9.23;100.00;100628.53;5160494;28;20057;-78
2023/02/21 06:32:10;;;;;;;31.25;13.77;;;;;;;9.30;100.00;100630.09;5158202;28;20109;-77
2023/02/21 06:34:42;;;;;;;27.73;13.82;;;;;;;9.27;100.00;100624.94;5155312;28;20019;-76
2023/02/21 06:37:13;;;;;;;25.08;12.88;;;;;;;9.23;100.00;100628.53;5135007;28;20115;-74
2023/02/21 06:39:43;;;;;;;26.90;11.90;;;;;;;9.24;100.00;100627.66;5167895;28;20047;-77
2023/02/21 06:42:15;;;;;;;28.35;13.20;;;;;;;9.20;100.00;100636.47;5151346;28;20053;-76
2023/02/21 06:44:46;;;;;;;27.00;12.63;;;;;;;9.25;100.00;100637.19;5152480;28;20026;-76
2023/02/21 06:47:17;;;;;;;25.25;12.05;;;;;;;9.27;100.00;100640.59;5136921;28;20150;-75
2023/02/21 06:49:47;;;;;;;29.98;13.15;;;;;;;9.25;100.00;100647.59;5168188;28;20038;-74
2023/02/21 06:52:17;;;;;;;27.90;13.18;;;;;;;9.18;100.00;100656.53;5154564;28;20087;-74
2023/02/21 06:54:49;;;;;;;30.83;12.20;;;;;;;9.23;100.00;100665.06;5154164;28;20030;-75
2023/02/21 06:57:19;;;;;;;27.50;12.25;;;;;;;9.20;100.00;100666.00;5137502;28;20041;-72
2023/02/21 06:59:50;;;;;;;25.42;12.13;;;;;;;9.19;100.00;100673.88;5144539;28;20569;-74
2023/02/21 07:02:20;;;;;;;27.35;11.85;;;;;;;9.24;100.00;100671.97;5151784;28;20032;-75
2023/02/21 07:04:50;;;;;;;24.67;11.35;;;;;;;9.25;100.00;100678.91;5154573;28;20109;-74
2023/02/21 07:07:21;;;;;;;24.05;11.07;;;;;;;9.23;100.00;100678.09;5131001;28;20026;-74
2023/02/21 07:09:51;;;;;;;25.08;12.57;;;;;;;9.23;100.00;100685.91;5139256;28;20031;-75
2023/02/21 07:12:21;;;;;;;28.30;11.75;;;;;;;9.24;100.00;100683.28;5134155;28;20059;-75
2023/02/21 07:14:53;;;;;;;26.42;11.30;;;;;;;9.23;100.00;100686.78;5134844;28;20282;-74
2023/02/21 07:17:23;;;;;;;24.58;12.38;;;;;;;9.29;100.00;100688.38;5135378;28;20027;-74
2023/02/21 07:19:53;;;;;;;25.65;11.88;;;;;;;9.17;100.00;100681.72;5130907;28;20019;-75
2023/02/21 07:22:25;;;;;;;25.95;11.93;;;;;;;9.20;100.00;100691.22;5140653;28;20047;-74
2023/02/21 07:24:55;;;;;;;26.00;11.40;;;;;;;9.19;100.00;100692.13;5135480;28;20470;-74
2023/02/21 07:27:26;;;;;;;23.42;11.00;;;;;;;9.12;100.00;100693.19;5140455;28;20178;-73
2023/02/21 07:29:56;;;;;;;26.80;11.48;;;;;;;9.15;100.00;100695.72;5141351;28;20660;-74
2023/02/21 07:32:27;;;;;;;26.15;11.55;;;;;;;9.14;100.00;100696.63;5137408;28;20035;-76
2023/02/21 07:34:57;;;;;;;24.95;11.38;;;;;;;9.20;100.00;100696.44;5141765;28;20118;-75
2023/02/21 07:37:27;;;;;;;24.20;10.70;;;;;;;9.17;100.00;100701.75;5141427;28;20026;-75
2023/02/21 07:39:58;;;;;;;21.92;10.80;;;;;;;9.08;100.00;100701.97;5140499;28;20031;-75
2023/02/21 07:42:28;;;;;;;22.42;10.25;;;;;;;9.02;100.00;100701.28;5139325;28;20121;-74
2023/02/21 07:44:58;;;;;;;24.55;10.18;;;;;;;9.05;100.00;100702.06;5139151;28;20018;-76
2023/02/21 07:47:29;;;;;;;23.15;9.90;;;;;;;9.17;100.00;100699.13;5142423;28;20053;-75
2023/02/21 07:49:59;;;;;;;22.48;9.45;;;;;;;9.13;100.00;100705.34;5156972;28;20039;-74
2023/02/21 07:52:29;;;;;;;21.55;10.18;;;;;;;9.13;100.00;100705.34;5156742;28;20027;-74
2023/02/21 07:55:00;;;;;;;21.88;10.35;;;;;;;9.15;100.00;100704.38;5140809;28;20037;-76
2023/02/21 07:57:30;;;;;;;24.33;10.82;;;;;;;9.19;100.00;100708.63;5138742;28;20054;-75
2023/02/21 08:00:00;;;;;;;20.50;10.27;;;;;;;9.14;100.00;100718.31;5141948;28;20039;-75
2023/02/21 08:02:30;;;;;;;23.42;9.85;;;;;;;9.11;100.00;100717.56;5141923;28;20062;-74
2023/02/21 08:05:01;;;;;;;24.13;9.93;;;;;;;9.18;100.00;100721.69;5141452;28;20480;-74
2023/02/21 08:07:31;;;;;;;23.70;9.60;;;;;;;9.11;100.00;100720.19;5174861;28;20025;-75
2023/02/21 08:10:03;;;;;;;20.85;9.82;;;;;;;9.02;100.00;100720.41;5192960;28;20029;-75
2023/02/21 08:12:33;;;;;;;22.38;9.77;;;;;;;9.10;100.00;100721.03;5190385;28;20436;-75
2023/02/21 08:15:05;;;;;;;22.60;9.77;;;;;;;9.17;100.00;100727.81;5186770;28;20037;-75
2023/02/21 08:17:35;;;;;;;21.75;9.70;;;;;;;9.09;100.00;100740.19;5188143;28;20505;-75
2023/02/21 08:20:06;;;;;;;21.05;9.57;;;;;;;9.16;100.00;100732.16;5187805;28;20029;-75
2023/02/21 08:22:37;;;;;;;22.33;10.15;;;;;;;9.26;100.00;100727.53;5186343;28;20021;-76
2023/02/21 08:25:09;;;;;;;21.13;9.80;;;;;;;9.24;100.00;100729.34;5188455;28;20497;-74
2023/02/21 08:27:40;;;;;;;24.20;10.15;;;;;;;9.23;100.00;100723.28;5187709;28;20061;-75
2023/02/21 08:30:13;;;;;;;21.45;9.10;;;;;;;9.25;100.00;100716.28;5185532;28;20278;-76
2023/02/21 08:32:46;;;;;;;22.75;9.95;;;;;;;9.23;100.00;100725.91;5188653;28;20262;-75
2023/02/21 08:35:18;;;;;;;23.80;10.48;;;;;;;9.27;100.00;100722.28;5180299;28;20022;-78
2023/02/21 08:37:49;;;;;;;22.38;10.63;;;;;;;9.29;100.00;100732.69;5188543;28;20034;-76
2023/02/21 08:40:20;;;;;;;21.90;9.23;;;;;;;9.30;100.00;100735.25;5191324;28;20514;-75
2023/02/21 08:42:53;;;;;;;24.08;10.73;;;;;;;9.29;100.00;100727.50;5188638;28;20036;-75
2023/02/21 08:45:25;;;;;;;23.85;10.25;;;;;;;9.30;100.00;100730.03;5185760;28;20112;-76
2023/02/21 08:47:57;;;;;;;23.33;10.40;;;;;;;9.31;100.00;100733.50;5192296;28;20426;-75
2023/02/21 08:50:28;;;;;;;22.25;9.90;;;;;;;9.49;100.00;100735.59;5186308;28;20060;-76
2023/02/21 08:52:58;;;;;;;24.10;10.15;;;;;;;9.41;100.00;100732.34;5192870;28;20030;-76
2023/02/21 08:55:29;;;;;;;23.02;10.50;;;;;;;9.52;100.00;100743.34;5186888;28;20392;-75
2023/02/21 08:57:59;;;;;;;26.35;11.02;;;;;;;9.50;100.00;100742.53;5192564;28;20115;-74
2023/02/21 09:00:29;;;;;;;29.27;11.70;;;;;;;9.51;100.00;100742.47;5187065;28;20032;-76
2023/02/21 09:03:00;;;;;;;26.83;11.73;;;;;;;9.49;100.00;100740.81;5189205;28;20025;-76
2023/02/21 09:05:31;;;;;;;25.05;11.35;;;;;;;9.52;100.00;100740.72;5187128;28;20396;-75
2023/02/21 09:08:02;;;;;;;25.90;11.57;;;;;;;9.54;100.00;100757.19;5170479;28;20022;-74
2023/02/21 09:10:32;;;;;;;26.60;11.10;;;;;;;9.44;100.00;100756.59;5172532;28;20894;-75
2023/02/21 09:13:04;;;;;;;24.42;10.98;;;;;;;9.51;100.00;100757.28;5177965;28;20391;-77
2023/02/21 09:15:34;;;;;;;27.80;10.60;;;;;;;9.58;100.00;100749.22;5175736;28;20061;-75
2023/02/21 09:18:05;;;;;;;27.05;11.85;;;;;;;9.50;100.00;100756.41;5178147;28;20053;-74
2023/02/21 09:20:40;;;;;;;25.50;10.88;;;;;;;9.58;100.00;100759.66;5180035;28;20060;-75
2023/02/21 09:23:10;;;;;;;26.23;10.97;;;;;;;9.58;100.00;100750.97;5181048;28;20025;-73
2023/02/21 09:25:41;;;;;;;25.45;10.90;;;;;;;9.66;100.00;100759.44;5179101;28;20285;-73
2023/02/21 09:28:13;;;;;;;28.33;12.40;;;;;;;9.68;100.00;100747.22;5177746;28;20503;-74
2023/02/21 09:30:43;;;;;;;26.85;10.85;;;;;;;9.66;100.00;100759.44;5176259;28;20030;-74
2023/02/21 09:33:14;;;;;;;24.73;11.43;;;;;;;9.74;100.00;100760.06;5176173;28;20510;-75
2023/02/21 09:35:45;;;;;;;20.67;10.10;;;;;;;9.79;100.00;100760.81;5178021;28;20037;-75
2023/02/21 09:38:15;;;;;;;32.38;15.73;;;;;;;9.85;100.00;100755.41;5178514;28;20521;-75
2023/02/21 09:40:49;;;;;;;32.60;15.32;;;;;;;9.84;100.00;100754.53;5179099;28;20253;-75
2023/02/21 09:43:25;;;;;;;32.42;14.50;;;;;;;9.99;100.00;100748.84;5175026;28;20032;-75
2023/02/21 09:45:59;;;;;;;29.02;13.50;;;;;;;10.01;100.00;100754.91;5180829;28;20446;-74
2023/02/21 09:48:30;;;;;;;30.70;14.25;;;;;;;10.06;100.00;100747.81;5179785;28;20083;-75
2023/02/21 09:51:07;;;;;;;26.92;13.38;;;;;;;10.17;100.00;100747.47;5179230;28;20064;-74
2023/02/21 09:53:47;;;;;;;28.48;13.35;;;;;;;10.17;100.00;100755.31;5176312;28;20049;-76
2023/02/21 09:56:27;;;;;;;28.73;13.38;;;;;;;10.14;100.00;100750.19;5178293;28;20022;-75
2023/02/21 09:58:57;;;;;;;27.08;12.88;;;;;;;10.20;100.00;100752.59;5176318;28;20036;-74
2023/02/21 10:01:54;;;;;;;25.95;12.07;;;;;;;10.17;100.00;100739.66;5178609;28;20030;-75
2023/02/21 10:04:50;;;;;;;27.73;12.88;;;;;;;10.25;100.00;100748.06;5179176;28;20534;-75
2023/02/21 10:07:33;;;;;;;23.95;12.23;;;;;;;10.43;100.00;100752.72;5165115;28;20034;-74
2023/02/21 10:10:13;;;;;;;25.05;12.38;;;;;;;10.53;100.00;100748.91;5154272;28;20125;-75
2023/02/21 10:13:05;;;;;;;24.60;11.80;;;;;;;10.56;100.00;100744.47;5157414;28;20443;-75
2023/02/21 10:15:50;;;;;;;24.38;11.45;;;;;;;10.58;100.00;100740.03;5162801;28;20027;-74
2023/02/21 10:18:23;;;;;;;22.30;11.05;;;;;;;10.56;100.00;100751.44;5156850;28;20033;-77
2023/02/21 10:21:03;;;;;;;24.08;10.02;;;;;;;10.72;100.00;100744.78;5158023;28;20030;-75
2023/02/21 10:23:46;;;;;;;20.85;11.02;;;;;;;10.63;100.00;100747.69;5153799;28;20022;-74
2023/02/21 10:26:23;;;;;;;21.10;10.77;;;;;;;10.56;100.00;100747.06;5156247;28;20628;-74
2023/02/21 10:28:55;;;;;;;19.02;9.65;;;;;;;10.49;100.00;100752.53;5158131;28;20030;-75
2023/02/21 10:31:38;;;;;;;22.73;10.73;;;;;;;10.64;100.00;100755.50;5158907;28;20145;-76
2023/02/21 10:34:25;;;;;;;19.90;10.95;;;;;;;10.63;100.00;100758.16;5155843;28;20030;-77
2023/02/21 10:37:03;;;;;;;20.67;10.75;;;;;;;10.64;100.00;100759.84;5159508;28;20033;-74
2023/02/21 10:39:42;;;;;;;21.33;11.40;;;;;;;10.70;100.00;100763.13;5155161;28;20022;-75
2023/02/21 10:42:25;;;;;;;26.20;13.27;;;;;;;10.71;100.00;100764.00;5158920;28;20389;-74
2023/02/21 10:44:56;;;;;;;24.98;12.77;;;;;;;10.66;100.00;100763.31;5162474;28;20038;-75
2023/02/21 10:47:48;;;;;;;26.90;13.57;;;;;;;10.83;100.00;100771.44;5163502;28;20022;-78
2023/02/21 10:50:39;;;;;;;27.38;12.40;;;;;;;10.84;100.00;100768.75;5160352;28;20033;-74
2023/02/21 10:53:31;;;;;;;27.00;11.93;;;;;;;10.91;100.00;100770.28;5163014;28;20037;-74
2023/02/21 10:56:23;;;;;;;25.17;12.05;;;;;;;10.80;100.00;100776.75;5158441;28;20030;-75
2023/02/21 10:59:04;;;;;;;22.90;11.63;;;;;;;10.80;100.00;100781.97;5152287;28;20030;-77
2023/02/21 11:01:44;;;;;;;28.05;11.82;;;;;;;10.78;100.00;100770.72;5158315;28;20072;-74
2023/02/21 11:04:26;;;;;;;26.85;13.10;;;;;;;10.96;100.00;100778.81;5145055;28;20511;-74
2023/02/21 11:07:00;;;;;;;28.75;13.32;;;;;;;10.96;100.00;100773.56;5161944;28;20077;-74
2023/02/21 11:09:36;;;;;;;29.85;12.68;;;;;;;10.87;100.00;100773.88;5161304;28;20033;-74
2023/02/21 11:12:16;;;;;;;25.40;12.55;;;;;;;10.90;100.00;100779.03;5159297;28;20030;-74
2023/02/21 11:14:49;;;;;;;24.02;12.25;;;;;;;11.01;100.00;100787.34;5164364;28;20029;-74
2023/02/21 11:17:24;;;;;;;29.33;13.48;;;;;;;10.97;100.00;100790.09;5143117;28;20030;-75
2023/02/21 11:19:55;;;;;;;24.40;12.80;;;;;;;11.02;100.00;100788.22;5162811;28;20022;-74
2023/02/21 11:22:41;;;;;;;29.02;13.63;;;;;;;10.88;100.00;100787.81;5162661;28;20461;-74
2023/02/21 11:25:22;;;;;;;25.92;11.65;;;;;;;10.95;100.00;100786.69;5158120;28;20101;-75
2023/02/21 11:28:04;;;;;;;24.88;12.23;;;;;;;10.89;100.00;100789.53;5163335;28;20447;-74
2023/02/21 11:30:37;;;;;;;24.08;12.55;;;;;;;11.02;100.00;100798.69;5163068;28;20041;-75
2023/02/21 11:33:08;;;;;;;22.75;11.32;;;;;;;11.02;100.00;100800.38;5161841;28;20029;-74
2023/02/21 11:35:46;;;;;;;22.33;11.32;;;;;;;10.98;100.00;100802.28;5161698;28;20411;-73
2023/02/21 11:39:00;;;;;;;19.25;10.13;;;;;;;10.96;100.00;100789.28;5160844;28;20385;-75
2023/02/21 11:41:44;;;;;;;30.75;12.75;;;;;;;11.09;100.00;100804.50;5098295;29;20036;-75
2023/02/21 11:44:41;;;;;;;28.00;12.80;;;;;;;11.05;100.00;100783.72;5156871;28;20049;-74
2023/02/21 11:47:13;;;;;;;24.65;11.23;;;;;;;11.15;100.00;100779.88;5160588;28;20042;-75
2023/02/21 11:49:47;;;;;;;26.40;11.43;;;;;;;11.22;100.00;100777.00;5161213;28;20574;-76
2023/02/21 11:52:36;;;;;;;28.70;11.88;;;;;;;11.30;100.00;100779.34;5161343;28;20092;-73
2023/02/21 11:55:15;;;;;;;21.02;10.35;;;;;;;11.31;100.00;100784.50;5157507;28;20109;-74
2023/02/21 11:57:46;;;;;;;22.40;10.65;;;;;;;11.40;100.00;100785.94;5157797;28;20543;-74
2023/02/21 12:00:39;;;;;;;22.97;11.13;;;;;;;11.46;100.00;100788.38;5160577;28;20400;-74
2023/02/21 12:03:54;;;;;;;18.70;10.10;;;;;;;11.40;100.00;100786.81;5157514;28;20313;-75
2023/02/21 12:06:51;;;;;;;19.70;9.63;;;;;;;11.32;100.00;100790.63;5159270;28;20041;-74
2023/02/21 12:09:41;;;;;;;19.25;10.18;;;;;;;11.25;100.00;100787.34;5145396;28;20061;-76
2023/02/21 12:12:30;;;;;;;19.98;10.20;;;;;;;11.28;100.00;100782.00;5144780;28;20054;-74
2023/02/21 12:15:06;;;;;;;19.45;8.75;;;;;;;11.18;100.00;100785.00;5143838;28;20471;-73
2023/02/21 12:18:04;;;;;;;17.70;9.48;;;;;;;11.24;100.00;100790.03;5162825;28;20080;-75
2023/02/21 12:20:49;;;;;;;20.15;10.00;;;;;;;11.23;100.00;100788.31;5149944;28;20022;-75
2023/02/21 12:23:22;;;;;;;18.63;9.55;;;;;;;11.39;100.00;100786.88;5154688;28;20052;-76
2023/02/21 12:26:20;;;;;;;16.83;8.95;;;;;;;11.34;100.00;100780.94;5160360;28;20311;-73
2023/02/21 12:29:09;;;;;;;16.52;8.95;;;;;;;11.28;100.00;100775.94;5159102;28;20026;-73
2023/02/21 12:31:46;;;;;;;17.35;8.75;;;;;;;11.22;100.00;100777.00;5160656;28;20026;-75
2023/02/21 12:34:31;;;;;;;18.55;8.82;;;;;;;11.32;100.00;100773.16;5161037;28;20042;-73
2023/02/21 12:37:49;;;;;;;17.17;8.80;;;;;;;11.34;100.00;100778.34;5160782;28;20022;-74
2023/02/21 12:40:46;;;;;;;16.00;8.73;;;;;;;11.49;100.00;100765.56;5159105;28;20648;-75
2023/02/21 12:43:19;;;;;;;16.13;8.20;;;;;;;11.65;100.00;100755.41;5155770;28;20484;-76
2023/02/21 12:45:53;;;;;;;14.50;7.93;;;;;;;11.86;100.00;100758.09;5163634;28;20033;-74
2023/02/21 12:48:32;;;;;;;17.67;8.40;;;;;;;11.77;100.00;100757.59;5160186;28;20069;-75
2023/02/21 12:51:13;;;;;;;14.13;7.65;;;;;;;11.74;100.00;100760.28;5157084;28;20033;-75
2023/02/21 12:54:01;;;;;;;17.63;7.72;;;;;;;11.54;100.00;100766.25;5160745;28;20055;-72
2023/02/21 12:56:57;;;;;;;13.00;7.15;;;;;;;11.44;100.00;100767.47;5162513;28;20034;-74
2023/02/21 12:59:42;;;;;;;11.88;7.07;;;;;;;11.30;100.00;100759.25;5141969;28;20409;-74
2023/02/21 13:02:38;;;;;;;15.73;7.22;;;;;;;11.32;100.00;100757.47;5158670;28;20034;-76
2023/02/21 13:05:32;;;;;;;12.43;6.55;;;;;;;11.36;100.00;100753.81;5157547;28;20061;-77
2023/02/21 13:08:21;;;;;;;14.70;7.32;;;;;;;11.28;100.00;100758.47;5159508;28;20413;-74
2023/02/21 13:11:14;;;;;;;13.50;7.38;;;;;;;11.34;100.00;100754.78;5159679;28;20507;-75
2023/02/21 13:13:44;;;;;;;13.07;7.55;;;;;;;11.25;100.00;100755.13;5156759;28;20447;-74
2023/02/21 13:16:17;;;;;;;13.52;7.38;;;;;;;11.30;100.00;100747.97;5158313;28;20030;-74
2023/02/21 13:19:01;;;;;;;12.13;6.70;;;;;;;11.26;100.00;100744.59;5159963;28;20029;-75
2023/02/21 13:21:51;;;;;;;13.23;6.72;;;;;;;11.16;100.00;100748.44;5160560;28;20588;-74
2023/02/21 13:24:42;;;;;;;13.50;6.50;;;;;;;11.25;100.00;100750.72;5157751;28;20038;-75
2023/02/21 13:27:42;;;;;;;12.90;7.10;;;;;;;11.14;100.00;100746.78;5156785;28;20026;-76
2023/02/21 13:30:20;;;;;;;13.15;6.43;;;;;;;11.31;100.00;100745.25;5158873;28;20082;-74
2023/02/21 13:32:56;;;;;;;13.48;6.43;;;;;;;11.27;100.00;100733.22;5159771;28;20038;-74
2023/02/21 13:35:35;;;;;;;12.60;7.00;;;;;;;11.29;100.00;100735.78;5159974;28;20468;-73
2023/02/21 13:38:09;;;;;;;15.38;6.22;;;;;;;11.39;100.00;100721.44;5153010;28;20464;-75
2023/02/21 13:40:49;;;;;;;13.02;6.45;;;;;;;11.44;100.00;100724.78;5154901;28;20468;-74
2023/02/21 13:43:28;;;;;;;12.82;6.28;;;;;;;11.41;100.00;100725.72;5162137;28;20030;-74
2023/02/21 13:46:43;;;;;;;13.60;6.63;;;;;;;11.34;100.00;100729.50;5161532;28;20036;-74
2023/02/21 13:49:35;;;;;;;11.65;6.38;;;;;;;11.42;100.00;100724.81;5155092;28;20033;-74
2023/02/21 13:52:31;;;;;;;10.98;6.40;;;;;;;11.48;100.00;100721.97;5157307;28;20033;-75
2023/02/21 13:55:14;;;;;;;13.77;6.20;;;;;;;11.46;100.00;100723.78;5141782;28;20506;-75
2023/02/21 13:57:48;;;;;;;11.68;5.53;;;;;;;11.46;100.00;100729.00;5157250;28;20046;-77
2023/02/21 14:00:24;;;;;;;11.68;6.20;;;;;;;11.60;100.00;100725.94;5158088;28;20038;-75
2023/02/21 14:03:08;;;;;;;11.45;6.03;;;;;;;11.55;100.00;100722.59;5159334;28;20034;-74
2023/02/21 14:05:51;;;;;;;9.98;5.57;;;;;;;11.56;100.00;100724.31;5155790;28;20551;-74
2023/02/21 14:08:33;;;;;;;12.05;5.90;;;;;;;11.41;100.00;100736.19;5158679;28;20045;-74
2023/02/21 14:11:03;;;;;;;9.82;5.45;;;;;;;11.53;100.00;100734.88;5156214;28;20134;-74
2023/02/21 14:13:46;;;;;;;12.18;6.05;;;;;;;11.60;100.00;100726.78;5158888;28;20062;-75
2023/02/21 14:16:21;;;;;;;10.23;5.70;;;;;;;11.59;100.00;100730.31;5159083;28;20026;-77
2023/02/21 14:19:10;;;;;;;11.20;5.93;;;;;;;11.48;100.00;100723.75;5163460;28;20373;-73
2023/02/21 14:21:47;;;;;;;10.55;5.68;;;;;;;11.56;100.00;100719.97;5157332;28;20408;-73
2023/02/21 14:24:23;;;;;;;10.02;5.38;;;;;;;11.60;100.00;100718.94;5162328;28;20026;-74
2023/02/21 14:27:08;;;;;;;10.73;5.80;;;;;;;11.59;100.00;100714.59;5159954;28;20026;-75
2023/02/21 14:29:41;;;;;;;10.40;5.80;;;;;;;11.63;100.00;100721.44;5157085;28;20026;-74
2023/02/21 14:32:11;;;;;;;9.70;5.10;;;;;;;11.53;100.00;100721.78;5159366;28;20061;-75
2023/02/21 14:34:54;;;;;;;13.88;5.57;;;;;;;11.55;100.00;100717.34;5161108;28;20502;-75
2023/02/21 14:37:43;;;;;;;13.18;5.47;;;;;;;11.52;100.00;100718.34;5160843;28;20023;-75
2023/02/21 14:40:32;;;;;;;8.35;4.65;;;;;;;11.54;100.00;100721.75;5144154;28;20022;-75
2023/02/21 14:43:42;;;;;;;9.80;5.43;;;;;;;11.53;100.00;100714.81;5160600;28;20496;-74
2023/02/21 14:46:30;;;;;;;9.85;5.05;;;;;;;11.51;100.00;100724.50;5160431;28;20651;-76
2023/02/21 14:49:01;;;;;;;8.65;4.82;;;;;;;11.35;100.00;100723.34;5161783;28;20026;-74
2023/02/21 14:51:50;;;;;;;8.57;4.68;;;;;;;11.34;100.00;100728.63;5159941;28;20026;-76
2023/02/21 14:54:35;;;;;;;11.65;4.90;;;;;;;11.28;100.00;100732.31;5157018;28;20037;-75
2023/02/21 14:57:18;;;;;;;8.95;4.68;;;;;;;11.36;100.00;100729.41;5159485;28;20022;-73
2023/02/21 14:59:54;;;;;;;10.10;5.60;;;;;;;11.25;100.00;100723.72;5158825;28;20623;-74
2023/02/21 15:02:48;;;;;;;10.52;5.45;;;;;;;11.27;100.00;100725.38;5155893;28;20071;-75
2023/02/21 15:05:24;;;;;;;10.60;5.43;;;;;;;11.32;100.00;100725.22;5157042;28;20469;-75
2023/02/21 15:08:06;;;;;;;12.38;5.65;;;;;;;11.30;100.00;100720.00;5156971;28;20600;-74
2023/02/21 15:10:42;;;;;;;11.45;6.75;;;;;;;11.21;100.00;100724.72;5152511;28;20270;-75
2023/02/21 15:13:42;;;;;;;11.60;6.35;;;;;;;11.16;100.00;100724.91;5151770;28;20065;-73
2023/02/21 15:16:15;;;;;;;12.15;6.35;;;;;;;11.31;100.00;100728.72;5141458;28;20512;-75
2023/02/21 15:19:00;;;;;;;12.45;6.60;;;;;;;11.16;100.00;100730.16;5157570;28;20045;-74
2023/02/21 15:21:30;;;;;;;12.13;6.47;;;;;;;11.25;100.00;100729.81;5141777;28;20077;-73
2023/02/21 15:24:12;;;;;;;10.93;6.18;;;;;;;11.22;100.00;100737.75;5152408;28;20030;-73
2023/02/21 15:26:42;;;;;;;9.85;5.90;;;;;;;11.22;100.00;100744.75;5155927;28;20072;-74
2023/02/21 15:29:16;;;;;;;11.18;6.07;;;;;;;11.14;100.00;100737.16;5149956;28;20030;-73
2023/02/21 15:31:51;;;;;;;11.13;6.38;;;;;;;11.15;100.00;100740.66;5152851;28;20034;-74
2023/02/21 15:34:29;;;;;;;10.82;6.28;;;;;;;11.07;100.00;100734.84;5156386;28;20034;-74
2023/02/21 15:37:15;;;;;;;12.13;6.15;;;;;;;11.14;100.00;100734.53;5157962;28;20420;-73
2023/02/21 15:39:51;;;;;;;11.00;5.97;;;;;;;11.14;100.00;100731.94;5142705;28;20038;-73
2023/02/21 15:42:22;;;;;;;11.20;6.03;;;;;;;11.03;100.00;100730.59;5138642;28;20030;-74
2023/02/21 15:45:00;;;;;;;13.35;6.38;;;;;;;11.14;100.00;100731.94;5149498;28;20747;-73
2023/02/21 15:47:32;;;;;;;15.18;7.10;;;;;;;10.96;100.00;100725.63;5158678;28;20018;-75
2023/02/21 15:50:18;;;;;;;11.95;6.38;;;;;;;11.08;100.00;100729.53;5157957;28;20026;-76
2023/02/21 15:52:52;;;;;;;13.35;6.50;;;;;;;10.91;100.00;100727.56;5152447;28;20520;-71
2023/02/21 15:55:23;;;;;;;11.70;6.15;;;;;;;10.88;100.00;100725.06;5155520;28;20081;-73
2023/02/21 15:58:00;;;;;;;11.10;5.82;;;;;;;10.83;100.00;100724.38;5158640;28;20058;-75
2023/02/21 16:00:39;;;;;;;14.43;6.28;;;;;;;10.92;100.00;100734.50;5156799;28;20026;-74
2023/02/21 16:03:46;;;;;;;13.52;6.38;;;;;;;10.95;100.00;100732.66;5160451;28;20022;-76
2023/02/21 16:06:25;;;;;;;14.02;6.72;;;;;;;10.96;100.00;100733.47;5159346;28;20079;-75
2023/02/21 16:09:03;;;;;;;11.85;6.25;;;;;;;10.86;100.00;100729.50;5161562;28;20023;-74
2023/02/21 16:11:49;;;;;;;13.48;6.70;;;;;;;10.73;100.00;100725.59;5156777;28;20026;-74
2023/02/21 16:14:22;;;;;;;;;;;;;;;10.70;100.00;100723.06;5160192;28;20022;-74
2023/02/21 16:17:07;;;;;;;13.65;6.95;;;;;;;10.76;100.00;100722.84;5158599;28;20029;-77
2023/02/21 16:19:43;;;;;;;14.45;7.10;;;;;;;10.69;100.00;100726.59;5152982;28;20053;-75
2023/02/21 16:22:23;;;;;;;15.13;7.65;;;;;;;10.55;100.00;100731.44;5159144;28;20488;-74
2023/02/21 16:25:05;;;;;;;16.70;7.93;;;;;;;10.63;100.00;100734.63;5160121;28;20046;-75
2023/02/21 16:27:48;;;;;;;16.15;6.85;;;;;;;10.52;100.00;100734.97;5156863;28;20423;-74
2023/02/21 16:30:30;;;;;;;15.77;7.75;;;;;;;10.47;100.00;100730.81;5158794;28;20447;-75
2023/02/21 16:33:03;;;;;;;17.17;8.20;;;;;;;10.59;100.00;100730.41;5157917;28;20026;-75
2023/02/21 16:35:33;;;;;;;15.95;7.93;;;;;;;10.58;100.00;100726.09;5154548;28;20109;-74
2023/02/21 16:38:05;;;;;;;18.00;7.72;;;;;;;10.49;100.00;100740.31;5154029;28;20105;-75
2023/02/21 16:40:36;;;;;;;16.92;7.95;;;;;;;10.54;100.00;100738.41;5155265;28;20023;-74
2023/02/21 16:43:06;;;;;;;15.95;7.82;;;;;;;10.38;100.00;100747.63;5155763;28;20030;-74
2023/02/21 16:45:40;;;;;;;14.77;8.00;;;;;;;10.35;100.00;100745.13;5149261;28;20050;-74
2023/02/21 16:48:19;;;;;;;18.67;8.35;;;;;;;10.47;100.00;100749.97;5151439;28;20041;-74
2023/02/21 16:50:50;;;;;;;16.27;8.43;;;;;;;10.44;100.00;100751.81;5153726;28;20039;-72
2023/02/21 16:53:21;;;;;;;16.42;8.35;;;;;;;10.30;100.00;100743.56;5151037;28;20034;-74
2023/02/21 16:55:52;;;;;;;17.85;8.38;;;;;;;10.28;100.00;100750.59;5139351;28;20033;-74
2023/02/21 16:58:25;;;;;;;20.70;8.48;;;;;;;10.42;100.00;100756.22;5155575;28;20038;-74
2023/02/21 17:01:01;;;;;;;17.58;8.68;;;;;;;10.34;100.00;100761.69;5154762;28;20022;-76
2023/02/21 17:03:32;;;;;;;18.20;9.27;;;;;;;10.32;100.00;100762.66;5155437;28;20457;-76
2023/02/21 17:06:03;;;;;;;17.70;8.93;;;;;;;10.31;100.00;100761.81;5156051;28;20349;-75
2023/02/21 17:08:33;;;;;;;19.73;9.20;;;;;;;10.20;100.00;100763.03;5152449;28;20069;-75
2023/02/21 17:11:03;;;;;;;21.67;8.77;;;;;;;10.31;100.00;100766.19;5159604;28;20030;-74
2023/02/21 17:13:34;;;;;;;23.38;9.38;;;;;;;10.25;100.00;100766.38;5157798;28;20029;-74
2023/02/21 17:16:05;;;;;;;20.23;9.63;;;;;;;10.17;100.00;100774.44;5159401;28;20109;-75